sensor_id;sensor_type;location;lat;lon;timestamp;temperature;humidity
1650;DHT22;822;53.670;8.676;2023-01-24T00:00:21;3.10;91.70
1650;DHT22;822;53.670;8.676;2023-01-24T00:02:48;3.10;91.80
1650;DHT22;822;53.670;8.676;2023-01-24T00:05:15;3.10;91.80
1650;DHT22;822;53.670;8.676;2023-01-24T00:07:42;3.10;91.80
1650;DHT22;822;53.670;8.676;2023-01-24T00:10:11;3.10;91.80
1650;DHT22;822;53.670;8.676;2023-01-24T00:12:38;3.10;91.70
1650;DHT22;822;53.670;8.676;2023-01-24T00:15:08;3.10;91.70
1650;DHT22;822;53.670;8.676;2023-01-24T00:17:35;3.10;91.70
1650;DHT22;822;53.670;8.676;2023-01-24T00:20:03;3.10;91.70
1650;DHT22;822;53.670;8.676;2023-01-24T00:22:31;3.10;91.60
1650;DHT22;822;53.670;8.676;2023-01-24T00:24:58;3.10;91.70
1650;DHT22;822;53.670;8.676;2023-01-24T00:27:25;3.10;91.70
1650;DHT22;822;53.670;8.676;2023-01-24T00:29:52;3.10;91.70
1650;DHT22;822;53.670;8.676;2023-01-24T00:32:20;3.10;91.70
1650;DHT22;822;53.670;8.676;2023-01-24T00:34:48;3.10;91.70
1650;DHT22;822;53.670;8.676;2023-01-24T00:37:15;3.10;91.70
1650;DHT22;822;53.670;8.676;2023-01-24T00:39:42;3.10;91.70
1650;DHT22;822;53.670;8.676;2023-01-24T00:42:09;3.10;91.70
1650;DHT22;822;53.670;8.676;2023-01-24T00:44:36;3.10;91.70
1650;DHT22;822;53.670;8.676;2023-01-24T00:47:03;3.10;91.70
1650;DHT22;822;53.670;8.676;2023-01-24T00:49:31;3.10;91.70
1650;DHT22;822;53.670;8.676;2023-01-24T00:51:58;3.10;91.70
1650;DHT22;822;53.670;8.676;2023-01-24T00:54:25;3.10;91.70
1650;DHT22;822;53.670;8.676;2023-01-24T00:56:52;3.10;91.70
1650;DHT22;822;53.670;8.676;2023-01-24T00:59:20;3.10;91.70
1650;DHT22;822;53.670;8.676;2023-01-24T01:01:50;3.10;91.70
1650;DHT22;822;53.670;8.676;2023-01-24T01:04:18;3.10;91.70
1650;DHT22;822;53.670;8.676;2023-01-24T01:06:47;3.10;91.70
1650;DHT22;822;53.670;8.676;2023-01-24T01:09:14;3.10;91.70
1650;DHT22;822;53.670;8.676;2023-01-24T01:11:41;3.10;91.70
1650;DHT22;822;53.670;8.676;2023-01-24T01:14:08;3.10;91.70
1650;DHT22;822;53.670;8.676;2023-01-24T01:16:35;3.10;91.70
1650;DHT22;822;53.670;8.676;2023-01-24T01:19:04;3.10;91.70
1650;DHT22;822;53.670;8.676;2023-01-24T01:21:31;3.10;91.70
1650;DHT22;822;53.670;8.676;2023-01-24T01:24:00;3.10;91.70
1650;DHT22;822;53.670;8.676;2023-01-24T01:26:27;3.10;91.70
1650;DHT22;822;53.670;8.676;2023-01-24T01:28:54;3.10;91.70
1650;DHT22;822;53.670;8.676;2023-01-24T01:31:21;3.10;91.70
1650;DHT22;822;53.670;8.676;2023-01-24T01:33:49;3.10;91.70
1650;DHT22;822;53.670;8.676;2023-01-24T01:36:16;3.10;91.70
1650;DHT22;822;53.670;8.676;2023-01-24T01:38:43;3.10;91.70
1650;DHT22;822;53.670;8.676;2023-01-24T01:41:12;3.10;91.70
1650;DHT22;822;53.670;8.676;2023-01-24T01:43:39;3.10;91.70
1650;DHT22;822;53.670;8.676;2023-01-24T01:46:29;3.10;91.70
1650;DHT22;822;53.670;8.676;2023-01-24T01:49:00;3.10;91.60
1650;DHT22;822;53.670;8.676;2023-01-24T01:51:30;3.10;91.60
1650;DHT22;822;53.670;8.676;2023-01-24T01:54:01;3.00;91.60
1650;DHT22;822;53.670;8.676;2023-01-24T01:56:34;3.00;91.60
1650;DHT22;822;53.670;8.676;2023-01-24T01:59:06;3.00;91.60
1650;DHT22;822;53.670;8.676;2023-01-24T02:01:36;3.00;91.60
1650;DHT22;822;53.670;8.676;2023-01-24T02:04:09;3.00;91.70
1650;DHT22;822;53.670;8.676;2023-01-24T02:06:46;3.00;91.70
1650;DHT22;822;53.670;8.676;2023-01-24T02:09:15;3.00;91.70
1650;DHT22;822;53.670;8.676;2023-01-24T02:11:45;3.00;91.80
1650;DHT22;822;53.670;8.676;2023-01-24T02:14:17;3.00;91.70
1650;DHT22;822;53.670;8.676;2023-01-24T02:17:02;3.00;91.70
1650;DHT22;822;53.670;8.676;2023-01-24T02:19:52;3.00;91.80
1650;DHT22;822;53.670;8.676;2023-01-24T02:22:30;3.10;91.80
1650;DHT22;822;53.670;8.676;2023-01-24T02:25:06;3.10;91.70
1650;DHT22;822;53.670;8.676;2023-01-24T02:27:36;3.10;91.70
1650;DHT22;822;53.670;8.676;2023-01-24T02:30:04;3.10;91.80
1650;DHT22;822;53.670;8.676;2023-01-24T02:32:31;3.00;91.70
1650;DHT22;822;53.670;8.676;2023-01-24T02:35:02;3.10;91.80
1650;DHT22;822;53.670;8.676;2023-01-24T02:37:29;3.00;91.80
1650;DHT22;822;53.670;8.676;2023-01-24T02:40:01;3.00;91.80
1650;DHT22;822;53.670;8.676;2023-01-24T02:42:32;3.00;91.80
1650;DHT22;822;53.670;8.676;2023-01-24T02:45:05;3.00;91.80
1650;DHT22;822;53.670;8.676;2023-01-24T02:47:36;3.00;91.80
1650;DHT22;822;53.670;8.676;2023-01-24T02:50:04;3.00;91.80
1650;DHT22;822;53.670;8.676;2023-01-24T02:52:34;3.00;91.90
1650;DHT22;822;53.670;8.676;2023-01-24T02:55:18;3.00;91.90
1650;DHT22;822;53.670;8.676;2023-01-24T02:57:45;3.00;91.90
1650;DHT22;822;53.670;8.676;2023-01-24T03:00:31;3.00;91.90
1650;DHT22;822;53.670;8.676;2023-01-24T03:02:59;3.00;91.90
1650;DHT22;822;53.670;8.676;2023-01-24T03:05:26;3.00;91.90
1650;DHT22;822;53.670;8.676;2023-01-24T03:08:05;3.00;91.90
1650;DHT22;822;53.670;8.676;2023-01-24T03:10:33;3.10;92.00
1650;DHT22;822;53.670;8.676;2023-01-24T03:13:00;3.00;91.90
1650;DHT22;822;53.670;8.676;2023-01-24T03:15:46;3.00;91.90
1650;DHT22;822;53.670;8.676;2023-01-24T03:18:30;3.00;91.90
1650;DHT22;822;53.670;8.676;2023-01-24T03:21:15;3.00;91.80
1650;DHT22;822;53.670;8.676;2023-01-24T03:23:59;3.00;91.80
1650;DHT22;822;53.670;8.676;2023-01-24T03:26:44;3.00;91.90
1650;DHT22;822;53.670;8.676;2023-01-24T03:29:28;3.00;91.90
1650;DHT22;822;53.670;8.676;2023-01-24T03:32:14;3.00;91.80
1650;DHT22;822;53.670;8.676;2023-01-24T03:34:58;3.00;91.40
1650;DHT22;822;53.670;8.676;2023-01-24T03:37:26;3.00;91.40
1650;DHT22;822;53.670;8.676;2023-01-24T03:40:12;3.00;91.40
1650;DHT22;822;53.670;8.676;2023-01-24T03:42:40;3.00;91.50
1650;DHT22;822;53.670;8.676;2023-01-24T03:45:15;3.00;91.50
1650;DHT22;822;53.670;8.676;2023-01-24T03:47:47;3.00;91.40
1650;DHT22;822;53.670;8.676;2023-01-24T03:50:21;3.00;91.30
1650;DHT22;822;53.670;8.676;2023-01-24T03:53:06;3.00;91.30
1650;DHT22;822;53.670;8.676;2023-01-24T03:55:34;3.00;91.20
1650;DHT22;822;53.670;8.676;2023-01-24T03:58:01;3.10;91.30
1650;DHT22;822;53.670;8.676;2023-01-24T04:00:28;3.10;91.20
1650;DHT22;822;53.670;8.676;2023-01-24T04:02:57;3.10;91.20
1650;DHT22;822;53.670;8.676;2023-01-24T04:05:24;3.10;91.20
1650;DHT22;822;53.670;8.676;2023-01-24T04:07:52;3.10;91.20
1650;DHT22;822;53.670;8.676;2023-01-24T04:10:20;3.10;91.20
1650;DHT22;822;53.670;8.676;2023-01-24T04:12:47;3.10;91.30
1650;DHT22;822;53.670;8.676;2023-01-24T04:15:17;3.10;91.20
1650;DHT22;822;53.670;8.676;2023-01-24T04:17:44;3.10;91.20
1650;DHT22;822;53.670;8.676;2023-01-24T04:20:15;3.10;91.20
1650;DHT22;822;53.670;8.676;2023-01-24T04:22:42;3.10;91.10
1650;DHT22;822;53.670;8.676;2023-01-24T04:25:09;3.10;91.10
1650;DHT22;822;53.670;8.676;2023-01-24T04:27:37;3.10;91.10
1650;DHT22;822;53.670;8.676;2023-01-24T04:30:09;3.10;91.00
1650;DHT22;822;53.670;8.676;2023-01-24T04:32:37;3.10;91.00
1650;DHT22;822;53.670;8.676;2023-01-24T04:35:05;3.10;90.90
1650;DHT22;822;53.670;8.676;2023-01-24T04:37:33;3.10;90.90
1650;DHT22;822;53.670;8.676;2023-01-24T04:40:01;3.10;91.00
1650;DHT22;822;53.670;8.676;2023-01-24T04:42:28;3.10;91.00
1650;DHT22;822;53.670;8.676;2023-01-24T04:44:55;3.10;91.00
1650;DHT22;822;53.670;8.676;2023-01-24T04:47:25;3.10;91.00
1650;DHT22;822;53.670;8.676;2023-01-24T04:49:52;3.10;91.00
1650;DHT22;822;53.670;8.676;2023-01-24T04:52:19;3.10;91.00
1650;DHT22;822;53.670;8.676;2023-01-24T04:54:48;3.10;91.00
1650;DHT22;822;53.670;8.676;2023-01-24T04:57:18;3.00;91.00
1650;DHT22;822;53.670;8.676;2023-01-24T04:59:45;3.00;90.90
1650;DHT22;822;53.670;8.676;2023-01-24T05:02:12;3.00;91.00
1650;DHT22;822;53.670;8.676;2023-01-24T05:04:39;3.00;91.00
1650;DHT22;822;53.670;8.676;2023-01-24T05:07:06;3.00;91.00
1650;DHT22;822;53.670;8.676;2023-01-24T05:09:33;3.00;91.00
1650;DHT22;822;53.670;8.676;2023-01-24T05:12:02;3.00;91.00
1650;DHT22;822;53.670;8.676;2023-01-24T05:14:29;3.00;91.00
1650;DHT22;822;53.670;8.676;2023-01-24T05:16:56;3.00;91.00
1650;DHT22;822;53.670;8.676;2023-01-24T05:19:23;3.00;91.00
1650;DHT22;822;53.670;8.676;2023-01-24T05:21:50;3.00;91.00
1650;DHT22;822;53.670;8.676;2023-01-24T05:24:18;3.00;91.00
1650;DHT22;822;53.670;8.676;2023-01-24T05:26:45;3.00;91.00
1650;DHT22;822;53.670;8.676;2023-01-24T05:29:13;3.00;91.00
1650;DHT22;822;53.670;8.676;2023-01-24T05:31:40;3.00;90.90
1650;DHT22;822;53.670;8.676;2023-01-24T05:34:08;3.00;90.90
1650;DHT22;822;53.670;8.676;2023-01-24T05:36:35;3.00;90.90
1650;DHT22;822;53.670;8.676;2023-01-24T05:39:02;3.00;90.90
1650;DHT22;822;53.670;8.676;2023-01-24T05:41:29;3.00;90.80
1650;DHT22;822;53.670;8.676;2023-01-24T05:43:56;3.00;90.80
1650;DHT22;822;53.670;8.676;2023-01-24T05:46:25;3.00;90.80
1650;DHT22;822;53.670;8.676;2023-01-24T05:48:54;3.00;90.80
1650;DHT22;822;53.670;8.676;2023-01-24T05:51:21;3.00;90.80
1650;DHT22;822;53.670;8.676;2023-01-24T05:53:49;3.00;90.80
1650;DHT22;822;53.670;8.676;2023-01-24T05:56:18;3.00;90.80
1650;DHT22;822;53.670;8.676;2023-01-24T05:58:46;3.00;90.80
1650;DHT22;822;53.670;8.676;2023-01-24T06:01:14;3.00;90.80
1650;DHT22;822;53.670;8.676;2023-01-24T06:03:45;3.00;90.80
1650;DHT22;822;53.670;8.676;2023-01-24T06:06:14;3.00;90.80
1650;DHT22;822;53.670;8.676;2023-01-24T06:08:42;3.00;90.90
1650;DHT22;822;53.670;8.676;2023-01-24T06:11:11;3.00;90.90
1650;DHT22;822;53.670;8.676;2023-01-24T06:13:39;3.00;90.80
1650;DHT22;822;53.670;8.676;2023-01-24T06:16:09;3.00;90.80
1650;DHT22;822;53.670;8.676;2023-01-24T06:18:37;3.00;90.80
1650;DHT22;822;53.670;8.676;2023-01-24T06:21:08;3.00;90.70
1650;DHT22;822;53.670;8.676;2023-01-24T06:23:35;3.00;90.60
1650;DHT22;822;53.670;8.676;2023-01-24T06:26:03;3.00;90.60
1650;DHT22;822;53.670;8.676;2023-01-24T06:28:31;3.00;90.40
1650;DHT22;822;53.670;8.676;2023-01-24T06:31:04;3.00;90.40
1650;DHT22;822;53.670;8.676;2023-01-24T06:33:40;3.00;90.40
1650;DHT22;822;53.670;8.676;2023-01-24T06:36:28;3.00;90.00
1650;DHT22;822;53.670;8.676;2023-01-24T06:38:58;3.00;89.90
1650;DHT22;822;53.670;8.676;2023-01-24T06:41:25;3.00;89.70
1650;DHT22;822;53.670;8.676;2023-01-24T06:43:53;3.00;89.50
1650;DHT22;822;53.670;8.676;2023-01-24T06:46:20;3.00;89.60
1650;DHT22;822;53.670;8.676;2023-01-24T06:48:47;3.00;89.60
1650;DHT22;822;53.670;8.676;2023-01-24T06:51:16;3.00;89.50
1650;DHT22;822;53.670;8.676;2023-01-24T06:53:43;3.00;89.40
1650;DHT22;822;53.670;8.676;2023-01-24T06:56:10;3.00;89.20
1650;DHT22;822;53.670;8.676;2023-01-24T06:58:37;3.00;89.20
1650;DHT22;822;53.670;8.676;2023-01-24T07:01:04;3.00;89.30
1650;DHT22;822;53.670;8.676;2023-01-24T07:03:31;3.00;89.40
1650;DHT22;822;53.670;8.676;2023-01-24T07:05:59;3.00;89.40
1650;DHT22;822;53.670;8.676;2023-01-24T07:08:27;3.00;89.40
1650;DHT22;822;53.670;8.676;2023-01-24T07:10:57;3.00;88.90
1650;DHT22;822;53.670;8.676;2023-01-24T07:13:24;3.00;88.70
1650;DHT22;822;53.670;8.676;2023-01-24T07:15:52;3.00;88.60
1650;DHT22;822;53.670;8.676;2023-01-24T07:18:19;3.00;88.50
1650;DHT22;822;53.670;8.676;2023-01-24T07:20:47;3.00;88.50
1650;DHT22;822;53.670;8.676;2023-01-24T07:23:20;3.00;88.00
1650;DHT22;822;53.670;8.676;2023-01-24T07:25:51;3.00;87.90
1650;DHT22;822;53.670;8.676;2023-01-24T07:28:19;3.00;87.60
1650;DHT22;822;53.670;8.676;2023-01-24T07:30:47;3.00;87.30
1650;DHT22;822;53.670;8.676;2023-01-24T07:33:15;3.00;87.40
1650;DHT22;822;53.670;8.676;2023-01-24T07:35:42;3.00;87.50
1650;DHT22;822;53.670;8.676;2023-01-24T07:38:10;3.00;87.60
1650;DHT22;822;53.670;8.676;2023-01-24T07:40:37;3.00;87.60
1650;DHT22;822;53.670;8.676;2023-01-24T07:43:06;3.00;87.70
1650;DHT22;822;53.670;8.676;2023-01-24T07:45:33;3.00;87.80
1650;DHT22;822;53.670;8.676;2023-01-24T07:48:05;3.00;87.80
1650;DHT22;822;53.670;8.676;2023-01-24T07:50:33;2.90;87.10
1650;DHT22;822;53.670;8.676;2023-01-24T07:53:00;2.90;87.00
1650;DHT22;822;53.670;8.676;2023-01-24T07:55:27;3.00;86.80
1650;DHT22;822;53.670;8.676;2023-01-24T07:57:58;3.00;86.80
1650;DHT22;822;53.670;8.676;2023-01-24T08:00:28;3.00;86.20
1650;DHT22;822;53.670;8.676;2023-01-24T08:02:55;3.00;86.40
1650;DHT22;822;53.670;8.676;2023-01-24T08:05:22;2.90;86.40
1650;DHT22;822;53.670;8.676;2023-01-24T08:07:49;2.90;86.50
1650;DHT22;822;53.670;8.676;2023-01-24T08:10:16;2.90;86.50
1650;DHT22;822;53.670;8.676;2023-01-24T08:12:43;2.90;86.20
1650;DHT22;822;53.670;8.676;2023-01-24T08:15:11;2.90;85.60
1650;DHT22;822;53.670;8.676;2023-01-24T08:17:39;2.90;85.50
1650;DHT22;822;53.670;8.676;2023-01-24T08:20:08;2.90;83.70
1650;DHT22;822;53.670;8.676;2023-01-24T08:22:37;2.90;83.60
1650;DHT22;822;53.670;8.676;2023-01-24T08:25:05;2.90;83.70
1650;DHT22;822;53.670;8.676;2023-01-24T08:27:32;2.90;83.70
1650;DHT22;822;53.670;8.676;2023-01-24T08:30:00;2.90;83.60
1650;DHT22;822;53.670;8.676;2023-01-24T08:32:27;3.00;83.50
1650;DHT22;822;53.670;8.676;2023-01-24T08:34:55;3.00;83.00
1650;DHT22;822;53.670;8.676;2023-01-24T08:37:22;3.00;82.80
1650;DHT22;822;53.670;8.676;2023-01-24T08:39:49;3.00;83.00
1650;DHT22;822;53.670;8.676;2023-01-24T08:42:17;3.00;83.20
1650;DHT22;822;53.670;8.676;2023-01-24T08:44:44;3.00;83.40
1650;DHT22;822;53.670;8.676;2023-01-24T08:47:12;3.00;83.50
1650;DHT22;822;53.670;8.676;2023-01-24T08:49:48;3.00;82.90
1650;DHT22;822;53.670;8.676;2023-01-24T08:52:43;3.00;82.80
1650;DHT22;822;53.670;8.676;2023-01-24T08:55:37;3.00;83.20
1650;DHT22;822;53.670;8.676;2023-01-24T08:58:26;3.00;83.40
1650;DHT22;822;53.670;8.676;2023-01-24T09:00:53;3.10;83.70
1650;DHT22;822;53.670;8.676;2023-01-24T09:03:20;3.10;83.80
1650;DHT22;822;53.670;8.676;2023-01-24T09:05:47;3.10;83.90
1650;DHT22;822;53.670;8.676;2023-01-24T09:08:16;3.10;84.00
1650;DHT22;822;53.670;8.676;2023-01-24T09:10:43;3.10;84.00
1650;DHT22;822;53.670;8.676;2023-01-24T09:13:10;3.10;84.10
1650;DHT22;822;53.670;8.676;2023-01-24T09:15:38;3.10;84.20
1650;DHT22;822;53.670;8.676;2023-01-24T09:18:05;3.20;84.20
1650;DHT22;822;53.670;8.676;2023-01-24T09:20:32;3.20;84.30
1650;DHT22;822;53.670;8.676;2023-01-24T09:23:00;3.20;84.10
1650;DHT22;822;53.670;8.676;2023-01-24T09:25:29;3.20;83.70
1650;DHT22;822;53.670;8.676;2023-01-24T09:27:56;3.20;82.60
1650;DHT22;822;53.670;8.676;2023-01-24T09:30:24;3.20;82.70
1650;DHT22;822;53.670;8.676;2023-01-24T09:32:51;3.20;82.90
1650;DHT22;822;53.670;8.676;2023-01-24T09:35:18;3.20;83.20
1650;DHT22;822;53.670;8.676;2023-01-24T09:37:45;3.20;83.20
1650;DHT22;822;53.670;8.676;2023-01-24T09:40:18;3.20;83.30
1650;DHT22;822;53.670;8.676;2023-01-24T09:42:56;3.20;83.20
1650;DHT22;822;53.670;8.676;2023-01-24T09:45:29;3.20;83.20
1650;DHT22;822;53.670;8.676;2023-01-24T09:47:59;3.20;83.20
1650;DHT22;822;53.670;8.676;2023-01-24T09:50:32;3.30;83.40
1650;DHT22;822;53.670;8.676;2023-01-24T09:53:02;3.30;83.40
1650;DHT22;822;53.670;8.676;2023-01-24T09:55:32;3.30;83.50
1650;DHT22;822;53.670;8.676;2023-01-24T09:58:04;3.30;83.50
1650;DHT22;822;53.670;8.676;2023-01-24T10:00:36;3.30;83.60
1650;DHT22;822;53.670;8.676;2023-01-24T10:03:12;3.30;83.60
1650;DHT22;822;53.670;8.676;2023-01-24T10:05:43;3.40;83.30
1650;DHT22;822;53.670;8.676;2023-01-24T10:08:19;3.30;82.60
1650;DHT22;822;53.670;8.676;2023-01-24T10:10:52;3.30;82.40
1650;DHT22;822;53.670;8.676;2023-01-24T10:16:42;3.40;82.20
1650;DHT22;822;53.670;8.676;2023-01-24T10:19:20;3.40;82.50
1650;DHT22;822;53.670;8.676;2023-01-24T10:22:08;3.40;82.10
1650;DHT22;822;53.670;8.676;2023-01-24T10:24:40;3.40;82.40
1650;DHT22;822;53.670;8.676;2023-01-24T10:27:15;3.40;81.80
1650;DHT22;822;53.670;8.676;2023-01-24T10:29:44;3.40;81.10
1650;DHT22;822;53.670;8.676;2023-01-24T10:32:14;3.30;81.20
1650;DHT22;822;53.670;8.676;2023-01-24T10:34:44;3.30;81.30
1650;DHT22;822;53.670;8.676;2023-01-24T10:37:19;3.40;81.70
1650;DHT22;822;53.670;8.676;2023-01-24T10:39:47;3.40;81.90
1650;DHT22;822;53.670;8.676;2023-01-24T10:42:20;3.40;82.00
1650;DHT22;822;53.670;8.676;2023-01-24T10:44:49;3.40;82.00
1650;DHT22;822;53.670;8.676;2023-01-24T10:47:48;3.50;82.10
1650;DHT22;822;53.670;8.676;2023-01-24T10:50:22;3.40;81.50
1650;DHT22;822;53.670;8.676;2023-01-24T10:52:50;3.50;81.70
1650;DHT22;822;53.670;8.676;2023-01-24T10:55:28;3.50;81.90
1650;DHT22;822;53.670;8.676;2023-01-24T10:57:57;3.50;79.90
1650;DHT22;822;53.670;8.676;2023-01-24T11:00:30;3.50;79.80
1650;DHT22;822;53.670;8.676;2023-01-24T11:03:02;3.50;80.30
1650;DHT22;822;53.670;8.676;2023-01-24T11:05:39;3.40;80.60
1650;DHT22;822;53.670;8.676;2023-01-24T11:08:17;3.40;81.00
1650;DHT22;822;53.670;8.676;2023-01-24T11:10:45;3.50;81.30
1650;DHT22;822;53.670;8.676;2023-01-24T11:13:29;3.50;81.30
1650;DHT22;822;53.670;8.676;2023-01-24T11:16:00;3.50;81.20
1650;DHT22;822;53.670;8.676;2023-01-24T11:18:31;3.50;80.90
1650;DHT22;822;53.670;8.676;2023-01-24T11:21:10;3.50;80.50
1650;DHT22;822;53.670;8.676;2023-01-24T11:23:37;3.50;80.10
1650;DHT22;822;53.670;8.676;2023-01-24T11:26:20;3.50;79.60
1650;DHT22;822;53.670;8.676;2023-01-24T11:28:56;3.50;79.50
1650;DHT22;822;53.670;8.676;2023-01-24T11:31:29;3.50;79.70
1650;DHT22;822;53.670;8.676;2023-01-24T11:34:19;3.50;80.00
1650;DHT22;822;53.670;8.676;2023-01-24T11:36:55;3.50;80.40
1650;DHT22;822;53.670;8.676;2023-01-24T11:39:34;3.50;80.70
1650;DHT22;822;53.670;8.676;2023-01-24T11:42:09;3.50;80.50
1650;DHT22;822;53.670;8.676;2023-01-24T11:44:58;3.50;80.70
1650;DHT22;822;53.670;8.676;2023-01-24T11:47:29;3.50;80.80
1650;DHT22;822;53.670;8.676;2023-01-24T11:50:15;3.60;80.70
1650;DHT22;822;53.670;8.676;2023-01-24T11:52:52;3.60;80.90
1650;DHT22;822;53.670;8.676;2023-01-24T11:55:36;3.60;81.10
1650;DHT22;822;53.670;8.676;2023-01-24T11:58:21;3.60;81.10
1650;DHT22;822;53.670;8.676;2023-01-24T12:00:58;3.60;81.20
1650;DHT22;822;53.670;8.676;2023-01-24T12:03:52;3.70;80.20
1650;DHT22;822;53.670;8.676;2023-01-24T12:06:30;3.70;79.50
1650;DHT22;822;53.670;8.676;2023-01-24T12:09:15;3.70;79.50
1650;DHT22;822;53.670;8.676;2023-01-24T12:11:49;3.70;79.70
1650;DHT22;822;53.670;8.676;2023-01-24T12:17:45;3.80;79.60
1650;DHT22;822;53.670;8.676;2023-01-24T12:20:47;3.80;79.80
1650;DHT22;822;53.670;8.676;2023-01-24T12:23:25;3.80;79.90
1650;DHT22;822;53.670;8.676;2023-01-24T12:25:56;3.80;80.10
1650;DHT22;822;53.670;8.676;2023-01-24T12:28:30;3.80;80.00
1650;DHT22;822;53.670;8.676;2023-01-24T12:31:02;3.70;79.70
1650;DHT22;822;53.670;8.676;2023-01-24T12:33:33;3.70;79.80
1650;DHT22;822;53.670;8.676;2023-01-24T12:36:06;3.70;79.80
1650;DHT22;822;53.670;8.676;2023-01-24T12:38:41;3.70;79.90
1650;DHT22;822;53.670;8.676;2023-01-24T12:41:18;3.70;79.70
1650;DHT22;822;53.670;8.676;2023-01-24T12:43:53;3.80;80.60
1650;DHT22;822;53.670;8.676;2023-01-24T12:46:26;4.00;79.80
1650;DHT22;822;53.670;8.676;2023-01-24T12:49:02;4.00;78.80
1650;DHT22;822;53.670;8.676;2023-01-24T12:51:36;4.00;78.50
1650;DHT22;822;53.670;8.676;2023-01-24T12:54:11;3.90;78.70
1650;DHT22;822;53.670;8.676;2023-01-24T12:56:47;4.00;79.10
1650;DHT22;822;53.670;8.676;2023-01-24T12:59:22;4.00;79.30
1650;DHT22;822;53.670;8.676;2023-01-24T13:05:31;4.00;79.60
1650;DHT22;822;53.670;8.676;2023-01-24T13:08:17;4.00;79.80
1650;DHT22;822;53.670;8.676;2023-01-24T13:10:58;4.00;79.90
1650;DHT22;822;53.670;8.676;2023-01-24T13:13:31;4.10;80.10
1650;DHT22;822;53.670;8.676;2023-01-24T13:16:14;4.10;80.00
1650;DHT22;822;53.670;8.676;2023-01-24T13:18:55;4.20;80.10
1650;DHT22;822;53.670;8.676;2023-01-24T13:21:32;4.20;80.20
1650;DHT22;822;53.670;8.676;2023-01-24T13:24:17;4.20;80.20
1650;DHT22;822;53.670;8.676;2023-01-24T13:27:00;4.30;79.90
1650;DHT22;822;53.670;8.676;2023-01-24T13:29:51;4.30;79.80
1650;DHT22;822;53.670;8.676;2023-01-24T13:32:21;4.30;79.50
1650;DHT22;822;53.670;8.676;2023-01-24T13:34:51;4.30;79.20
1650;DHT22;822;53.670;8.676;2023-01-24T13:37:23;4.20;79.00
1650;DHT22;822;53.670;8.676;2023-01-24T13:40:00;4.20;79.10
1650;DHT22;822;53.670;8.676;2023-01-24T13:42:39;4.20;78.50
1650;DHT22;822;53.670;8.676;2023-01-24T13:48:45;4.20;79.20
1650;DHT22;822;53.670;8.676;2023-01-24T13:51:33;4.20;79.30
1650;DHT22;822;53.670;8.676;2023-01-24T13:54:04;4.20;79.40
1650;DHT22;822;53.670;8.676;2023-01-24T13:56:32;4.20;79.40
1650;DHT22;822;53.670;8.676;2023-01-24T13:59:00;4.20;79.10
1650;DHT22;822;53.670;8.676;2023-01-24T14:01:27;4.10;79.10
1650;DHT22;822;53.670;8.676;2023-01-24T14:03:57;4.10;79.20
1650;DHT22;822;53.670;8.676;2023-01-24T14:06:26;4.10;80.00
1650;DHT22;822;53.670;8.676;2023-01-24T14:09:12;4.10;79.20
1650;DHT22;822;53.670;8.676;2023-01-24T14:11:58;4.10;79.30
1650;DHT22;822;53.670;8.676;2023-01-24T14:14:36;4.10;79.30
1650;DHT22;822;53.670;8.676;2023-01-24T14:17:30;4.10;79.20
1650;DHT22;822;53.670;8.676;2023-01-24T14:20:19;4.00;79.30
1650;DHT22;822;53.670;8.676;2023-01-24T14:22:52;4.10;79.20
1650;DHT22;822;53.670;8.676;2023-01-24T14:25:41;4.00;79.10
1650;DHT22;822;53.670;8.676;2023-01-24T14:28:16;4.00;79.00
1650;DHT22;822;53.670;8.676;2023-01-24T14:30:48;4.00;79.00
1650;DHT22;822;53.670;8.676;2023-01-24T14:33:36;4.00;78.80
1650;DHT22;822;53.670;8.676;2023-01-24T14:36:19;3.90;78.90
1650;DHT22;822;53.670;8.676;2023-01-24T14:38:47;3.90;79.00
1650;DHT22;822;53.670;8.676;2023-01-24T14:41:20;3.90;79.00
1650;DHT22;822;53.670;8.676;2023-01-24T14:43:48;3.90;79.20
1650;DHT22;822;53.670;8.676;2023-01-24T14:46:21;3.80;78.60
1650;DHT22;822;53.670;8.676;2023-01-24T14:48:49;3.80;78.90
1650;DHT22;822;53.670;8.676;2023-01-24T14:51:18;3.80;79.20
1650;DHT22;822;53.670;8.676;2023-01-24T14:53:47;3.80;79.10
1650;DHT22;822;53.670;8.676;2023-01-24T14:56:14;3.70;79.00
1650;DHT22;822;53.670;8.676;2023-01-24T14:58:42;3.70;79.10
1650;DHT22;822;53.670;8.676;2023-01-24T15:01:23;3.70;78.90
1650;DHT22;822;53.670;8.676;2023-01-24T15:03:51;3.70;79.10
1650;DHT22;822;53.670;8.676;2023-01-24T15:06:20;3.70;78.90
1650;DHT22;822;53.670;8.676;2023-01-24T15:08:55;3.60;79.10
1650;DHT22;822;53.670;8.676;2023-01-24T15:11:25;3.60;79.00
1650;DHT22;822;53.670;8.676;2023-01-24T15:13:56;3.60;79.30
1650;DHT22;822;53.670;8.676;2023-01-24T15:16:32;3.60;79.50
1650;DHT22;822;53.670;8.676;2023-01-24T15:19:03;3.60;79.60
1650;DHT22;822;53.670;8.676;2023-01-24T15:21:33;3.60;79.70
1650;DHT22;822;53.670;8.676;2023-01-24T15:24:02;3.50;79.20
1650;DHT22;822;53.670;8.676;2023-01-24T15:26:38;3.40;79.30
1650;DHT22;822;53.670;8.676;2023-01-24T15:35:21;3.30;79.60
1650;DHT22;822;53.670;8.676;2023-01-24T15:40:54;3.30;79.60
1650;DHT22;822;53.670;8.676;2023-01-24T15:43:26;3.20;79.60
1650;DHT22;822;53.670;8.676;2023-01-24T15:46:31;3.20;80.00
1650;DHT22;822;53.670;8.676;2023-01-24T15:49:26;3.20;80.30
1650;DHT22;822;53.670;8.676;2023-01-24T15:54:54;3.20;80.50
1650;DHT22;822;53.670;8.676;2023-01-24T15:57:26;3.10;80.60
1650;DHT22;822;53.670;8.676;2023-01-24T15:59:57;3.10;80.80
1650;DHT22;822;53.670;8.676;2023-01-24T16:02:25;3.10;81.00
1650;DHT22;822;53.670;8.676;2023-01-24T16:04:53;3.10;80.80
1650;DHT22;822;53.670;8.676;2023-01-24T16:07:20;3.00;80.90
1650;DHT22;822;53.670;8.676;2023-01-24T16:09:48;3.00;80.90
1650;DHT22;822;53.670;8.676;2023-01-24T16:12:19;3.00;80.90
1650;DHT22;822;53.670;8.676;2023-01-24T16:14:48;3.00;81.00
1650;DHT22;822;53.670;8.676;2023-01-24T16:17:19;2.90;80.90
1650;DHT22;822;53.670;8.676;2023-01-24T16:19:46;2.90;81.20
1650;DHT22;822;53.670;8.676;2023-01-24T16:22:15;2.90;81.30
1650;DHT22;822;53.670;8.676;2023-01-24T16:24:45;2.90;81.50
1650;DHT22;822;53.670;8.676;2023-01-24T16:27:13;2.90;81.60
1650;DHT22;822;53.670;8.676;2023-01-24T16:29:41;2.90;81.70
1650;DHT22;822;53.670;8.676;2023-01-24T16:32:18;2.80;81.70
1650;DHT22;822;53.670;8.676;2023-01-24T16:34:46;2.80;81.90
1650;DHT22;822;53.670;8.676;2023-01-24T16:37:15;2.80;82.00
1650;DHT22;822;53.670;8.676;2023-01-24T16:39:44;2.80;82.20
1650;DHT22;822;53.670;8.676;2023-01-24T16:42:14;2.80;82.30
1650;DHT22;822;53.670;8.676;2023-01-24T16:44:41;2.80;82.50
1650;DHT22;822;53.670;8.676;2023-01-24T16:47:09;2.80;82.60
1650;DHT22;822;53.670;8.676;2023-01-24T16:49:36;2.80;82.80
1650;DHT22;822;53.670;8.676;2023-01-24T16:52:03;2.70;82.50
1650;DHT22;822;53.670;8.676;2023-01-24T16:54:32;2.80;82.70
1650;DHT22;822;53.670;8.676;2023-01-24T16:56:59;2.70;82.80
1650;DHT22;822;53.670;8.676;2023-01-24T16:59:26;2.70;83.00
1650;DHT22;822;53.670;8.676;2023-01-24T17:01:54;2.70;82.80
1650;DHT22;822;53.670;8.676;2023-01-24T17:04:21;2.60;83.10
1650;DHT22;822;53.670;8.676;2023-01-24T17:06:48;2.70;83.30
1650;DHT22;822;53.670;8.676;2023-01-24T17:09:15;2.60;83.30
1650;DHT22;822;53.670;8.676;2023-01-24T17:11:44;2.70;83.40
1650;DHT22;822;53.670;8.676;2023-01-24T17:14:11;2.60;83.40
1650;DHT22;822;53.670;8.676;2023-01-24T17:16:39;2.60;83.50
1650;DHT22;822;53.670;8.676;2023-01-24T17:19:06;2.60;83.50
1650;DHT22;822;53.670;8.676;2023-01-24T17:21:33;2.60;84.10
1650;DHT22;822;53.670;8.676;2023-01-24T17:24:01;2.60;83.50
1650;DHT22;822;53.670;8.676;2023-01-24T17:26:28;2.60;83.30
1650;DHT22;822;53.670;8.676;2023-01-24T17:28:56;2.60;83.40